Aviation Digital Data Service (ADDS)

Output produced by METARs form (1126 UTC 19 February 2019)
found at http://www.aviationweather.gov/metar/data/
 
METAR text: UUDD 191100Z 24008MPS CAVOK 01/M13 Q1013 R88/190095 NOSIG
Conditions at: UUDD (MOSCOW/DOMODEDOV, RU) observed 1100 UTC 19 February 2019
Temperature: 1.0°C (34°F)
Dewpoint: -13.0°C ( 9°F) [RH = 34%]
Pressure (altimeter): 29.91 inches Hg (1013.0 mb)
Winds: from the WSW (240 degrees) at 18 MPH (16 knots; 8.2 m/s)
Visibility: 6 or more miles (10+ km)
Ceiling: ceiling and visibility are OK
Clouds: unknown
Weather: no significant weather observed at this time

METAR text: UUDD 191030Z 24007MPS CAVOK 01/M13 Q1014 R88/190095 NOSIG
Conditions at: UUDD (MOSCOW/DOMODEDOV, RU) observed 1030 UTC 19 February 2019
Temperature: 1.0°C (34°F)
Dewpoint: -13.0°C ( 9°F) [RH = 34%]
Pressure (altimeter): 29.94 inches Hg (1014.0 mb)
Winds: from the WSW (240 degrees) at 16 MPH (14 knots; 7.2 m/s)
Visibility: 6 or more miles (10+ km)
Ceiling: ceiling and visibility are OK
Clouds: unknown
Weather: no significant weather observed at this time

METAR text: UUDD 191000Z 25005G10MPS 210V290 CAVOK 00/M13 Q1014 R88/190095 NOSIG
Conditions at: UUDD (MOSCOW/DOMODEDOV, RU) observed 1000 UTC 19 February 2019
Temperature: 0.0°C (32°F)
Dewpoint: -13.0°C ( 9°F) [RH = 37%]
Pressure (altimeter): 29.94 inches Hg (1014.0 mb)
Winds: from the WSW (250 degrees) at 12 MPH (10 knots; 5.1 m/s)
gusting to 22 MPH (19 knots; 9.8 m/s)
Visibility: 6 or more miles (10+ km)
Ceiling: ceiling and visibility are OK
Clouds: unknown
Weather: no significant weather observed at this time

METAR text: UUDD 190930Z 24008MPS CAVOK M00/M12 Q1014 R88/190095 NOSIG
Conditions at: UUDD (MOSCOW/DOMODEDOV, RU) observed 0930 UTC 19 February 2019
Temperature: 0.0°C (32°F)
Dewpoint: -12.0°C (10°F) [RH = 40%]
Pressure (altimeter): 29.94 inches Hg (1014.0 mb)
Winds: from the WSW (240 degrees) at 18 MPH (16 knots; 8.2 m/s)
Visibility: 6 or more miles (10+ km)
Ceiling: ceiling and visibility are OK
Clouds: unknown
Weather: no significant weather observed at this time

METAR text: UUDD 190900Z 24008MPS CAVOK M01/M12 Q1015 R88/190095 NOSIG
Conditions at: UUDD (MOSCOW/DOMODEDOV, RU) observed 0900 UTC 19 February 2019
Temperature: -1.0°C (30°F)
Dewpoint: -12.0°C (10°F) [RH = 43%]
Pressure (altimeter): 29.97 inches Hg (1015.0 mb)
Winds: from the WSW (240 degrees) at 18 MPH (16 knots; 8.2 m/s)
Visibility: 6 or more miles (10+ km)
Ceiling: ceiling and visibility are OK
Clouds: unknown
Weather: no significant weather observed at this time

METAR text: UUDD 190830Z 25008MPS CAVOK M02/M12 Q1015 WS R14R R88/190095 NOSIG
Conditions at: UUDD (MOSCOW/DOMODEDOV, RU) observed 0830 UTC 19 February 2019
Temperature: -2.0°C (28°F)
Dewpoint: -12.0°C (10°F) [RH = 46%]
Pressure (altimeter): 29.97 inches Hg (1015.0 mb)
Winds: from the WSW (250 degrees) at 18 MPH (16 knots; 8.2 m/s)
Visibility: 6 or more miles (10+ km)
Ceiling: ceiling and visibility are OK
Clouds: unknown
Weather: no significant weather observed at this time

METAR text: UUDD 190800Z 24006MPS CAVOK M03/M13 Q1016 R88/190095 NOSIG
Conditions at: UUDD (MOSCOW/DOMODEDOV, RU) observed 0800 UTC 19 February 2019
Temperature: -3.0°C (27°F)
Dewpoint: -13.0°C ( 9°F) [RH = 46%]
Pressure (altimeter): 30.00 inches Hg (1016.0 mb)
Winds: from the WSW (240 degrees) at 14 MPH (12 knots; 6.2 m/s)
Visibility: 6 or more miles (10+ km)
Ceiling: ceiling and visibility are OK
Clouds: unknown
Weather: no significant weather observed at this time

METAR text: UUDD 190730Z 24008MPS CAVOK M04/M13 Q1016 R88/190095 NOSIG
Conditions at: UUDD (MOSCOW/DOMODEDOV, RU) observed 0730 UTC 19 February 2019
Temperature: -4.0°C (25°F)
Dewpoint: -13.0°C ( 9°F) [RH = 50%]
Pressure (altimeter): 30.00 inches Hg (1016.0 mb)
Winds: from the WSW (240 degrees) at 18 MPH (16 knots; 8.2 m/s)
Visibility: 6 or more miles (10+ km)
Ceiling: ceiling and visibility are OK
Clouds: unknown
Weather: no significant weather observed at this time

METAR text: UUDD 190700Z 24007MPS CAVOK M04/M13 Q1017 R88/190095 NOSIG
Conditions at: UUDD (MOSCOW/DOMODEDOV, RU) observed 0700 UTC 19 February 2019
Temperature: -4.0°C (25°F)
Dewpoint: -13.0°C ( 9°F) [RH = 50%]
Pressure (altimeter): 30.03 inches Hg (1017.0 mb)
Winds: from the WSW (240 degrees) at 16 MPH (14 knots; 7.2 m/s)
Visibility: 6 or more miles (10+ km)
Ceiling: ceiling and visibility are OK
Clouds: unknown
Weather: no significant weather observed at this time

METAR text: UUDD 190630Z 25005MPS 220V280 CAVOK M05/M13 Q1018 R88/190095 NOSIG
Conditions at: UUDD (MOSCOW/DOMODEDOV, RU) observed 0630 UTC 19 February 2019
Temperature: -5.0°C (23°F)
Dewpoint: -13.0°C ( 9°F) [RH = 53%]
Pressure (altimeter): 30.06 inches Hg (1018.0 mb)
Winds: from the WSW (250 degrees) at 12 MPH (10 knots; 5.1 m/s)
Visibility: 6 or more miles (10+ km)
Ceiling: ceiling and visibility are OK
Clouds: unknown
Weather: no significant weather observed at this time

METAR text: UUDD 190600Z 24004MPS 200V260 CAVOK M07/M13 Q1018 R88/190095 NOSIG
Conditions at: UUDD (MOSCOW/DOMODEDOV, RU) observed 0600 UTC 19 February 2019
Temperature: -7.0°C (19°F)
Dewpoint: -13.0°C ( 9°F) [RH = 62%]
Pressure (altimeter): 30.06 inches Hg (1018.0 mb)
Winds: from the WSW (240 degrees) at 9 MPH (8 knots; 4.1 m/s)
Visibility: 6 or more miles (10+ km)
Ceiling: ceiling and visibility are OK
Clouds: unknown
Weather: no significant weather observed at this time

METAR text: UUDD 190530Z 24005MPS 210V270 CAVOK M08/M13 Q1018 R88/190095 NOSIG
Conditions at: UUDD (MOSCOW/DOMODEDOV, RU) observed 0530 UTC 19 February 2019
Temperature: -8.0°C (18°F)
Dewpoint: -13.0°C ( 9°F) [RH = 67%]
Pressure (altimeter): 30.06 inches Hg (1018.0 mb)
Winds: from the WSW (240 degrees) at 12 MPH (10 knots; 5.1 m/s)
Visibility: 6 or more miles (10+ km)
Ceiling: ceiling and visibility are OK
Clouds: unknown
Weather: no significant weather observed at this time

METAR text: UUDD 190500Z 20004MPS CAVOK M09/M13 Q1019 R88/190095 NOSIG
Conditions at: UUDD (MOSCOW/DOMODEDOV, RU) observed 0500 UTC 19 February 2019
Temperature: -9.0°C (16°F)
Dewpoint: -13.0°C ( 9°F) [RH = 73%]
Pressure (altimeter): 30.09 inches Hg (1019.0 mb)
Winds: from the SSW (200 degrees) at 9 MPH (8 knots; 4.1 m/s)
Visibility: 6 or more miles (10+ km)
Ceiling: ceiling and visibility are OK
Clouds: unknown
Weather: no significant weather observed at this time

METAR text: UUDD 190430Z 23004MPS 200V260 CAVOK M10/M13 Q1019 R88/190095 NOSIG
Conditions at: UUDD (MOSCOW/DOMODEDOV, RU) observed 0430 UTC 19 February 2019
Temperature: -10.0°C (14°F)
Dewpoint: -13.0°C ( 9°F) [RH = 79%]
Pressure (altimeter): 30.09 inches Hg (1019.0 mb)
Winds: from the SW (230 degrees) at 9 MPH (8 knots; 4.1 m/s)
Visibility: 6 or more miles (10+ km)
Ceiling: ceiling and visibility are OK
Clouds: unknown
Weather: no significant weather observed at this time

METAR text: UUDD 190400Z 23003MPS CAVOK M10/M13 Q1019 R14R/190095 NOSIG
Conditions at: UUDD (MOSCOW/DOMODEDOV, RU) observed 0400 UTC 19 February 2019
Temperature: -10.0°C (14°F)
Dewpoint: -13.0°C ( 9°F) [RH = 79%]
Pressure (altimeter): 30.09 inches Hg (1019.0 mb)
Winds: from the SW (230 degrees) at 7 MPH (6 knots; 3.1 m/s)
Visibility: 6 or more miles (10+ km)
Ceiling: ceiling and visibility are OK
Clouds: unknown
Weather: no significant weather observed at this time

METAR text: UUDD 190330Z 21002MPS CAVOK M11/M14 Q1019 R14R/190095 NOSIG
Conditions at: UUDD (MOSCOW/DOMODEDOV, RU) observed 0330 UTC 19 February 2019
Temperature: -11.0°C (12°F)
Dewpoint: -14.0°C ( 7°F) [RH = 78%]
Pressure (altimeter): 30.09 inches Hg (1019.0 mb)
Winds: from the SSW (210 degrees) at 5 MPH (4 knots; 2.1 m/s)
Visibility: 6 or more miles (10+ km)
Ceiling: ceiling and visibility are OK
Clouds: unknown
Weather: no significant weather observed at this time

METAR text: UUDD 190300Z 21003MPS 190V270 CAVOK M12/M14 Q1020 R32L/190095 NOSIG
Conditions at: UUDD (MOSCOW/DOMODEDOV, RU) observed 0300 UTC 19 February 2019
Temperature: -12.0°C (10°F)
Dewpoint: -14.0°C ( 7°F) [RH = 85%]
Pressure (altimeter): 30.12 inches Hg (1020.0 mb)
Winds: from the SSW (210 degrees) at 7 MPH (6 knots; 3.1 m/s)
Visibility: 6 or more miles (10+ km)
Ceiling: ceiling and visibility are OK
Clouds: unknown
Weather: no significant weather observed at this time

METAR text: UUDD 190230Z 20002MPS CAVOK M13/M15 Q1020 R32L/190095 NOSIG
Conditions at: UUDD (MOSCOW/DOMODEDOV, RU) observed 0230 UTC 19 February 2019
Temperature: -13.0°C ( 9°F)
Dewpoint: -15.0°C ( 5°F) [RH = 85%]
Pressure (altimeter): 30.12 inches Hg (1020.0 mb)
Winds: from the SSW (200 degrees) at 5 MPH (4 knots; 2.1 m/s)
Visibility: 6 or more miles (10+ km)
Ceiling: ceiling and visibility are OK
Clouds: unknown
Weather: no significant weather observed at this time

METAR text: UUDD 190200Z VRB01MPS CAVOK M13/M16 Q1021 R32L/190095 NOSIG
Conditions at: UUDD (MOSCOW/DOMODEDOV, RU) observed 0200 UTC 19 February 2019
Temperature: -13.0°C ( 9°F)
Dewpoint: -16.0°C ( 3°F) [RH = 78%]
Pressure (altimeter): 30.15 inches Hg (1021.0 mb)
Winds: variable direction winds at 2 MPH (2 knots; 1.0 m/s)
Visibility: 6 or more miles (10+ km)
Ceiling: ceiling and visibility are OK
Clouds: unknown
Weather: no significant weather observed at this time

METAR text: UUDD 190130Z VRB01MPS CAVOK M12/M14 Q1021 R32L/190095 NOSIG
Conditions at: UUDD (MOSCOW/DOMODEDOV, RU) observed 0130 UTC 19 February 2019
Temperature: -12.0°C (10°F)
Dewpoint: -14.0°C ( 7°F) [RH = 85%]
Pressure (altimeter): 30.15 inches Hg (1021.0 mb)
Winds: variable direction winds at 2 MPH (2 knots; 1.0 m/s)
Visibility: 6 or more miles (10+ km)
Ceiling: ceiling and visibility are OK
Clouds: unknown
Weather: no significant weather observed at this time

METAR text: UUDD 190100Z 00000MPS CAVOK M12/M15 Q1020 R32L/190095 NOSIG
Conditions at: UUDD (MOSCOW/DOMODEDOV, RU) observed 0100 UTC 19 February 2019
Temperature: -12.0°C (10°F)
Dewpoint: -15.0°C ( 5°F) [RH = 78%]
Pressure (altimeter): 30.12 inches Hg (1020.0 mb)
Winds: calm
Visibility: 6 or more miles (10+ km)
Ceiling: ceiling and visibility are OK
Clouds: unknown
Weather: no significant weather observed at this time

METAR text: UUDD 190030Z 00000MPS CAVOK M13/M16 Q1021 R32L/190095 NOSIG
Conditions at: UUDD (MOSCOW/DOMODEDOV, RU) observed 0030 UTC 19 February 2019
Temperature: -13.0°C ( 9°F)
Dewpoint: -16.0°C ( 3°F) [RH = 78%]
Pressure (altimeter): 30.15 inches Hg (1021.0 mb)
Winds: calm
Visibility: 6 or more miles (10+ km)
Ceiling: ceiling and visibility are OK
Clouds: unknown
Weather: no significant weather observed at this time

METAR text: UUDD 190000Z 24001MPS CAVOK M13/M17 Q1021 R32L/190095 NOSIG
Conditions at: UUDD (MOSCOW/DOMODEDOV, RU) observed 0000 UTC 19 February 2019
Temperature: -13.0°C ( 9°F)
Dewpoint: -17.0°C ( 1°F) [RH = 72%]
Pressure (altimeter): 30.15 inches Hg (1021.0 mb)
Winds: from the WSW (240 degrees) at 2 MPH (2 knots; 1.0 m/s)
Visibility: 6 or more miles (10+ km)
Ceiling: ceiling and visibility are OK
Clouds: unknown
Weather: no significant weather observed at this time

METAR text: UUDD 182330Z VRB01MPS CAVOK M12/M15 Q1021 R32L/190095 NOSIG
Conditions at: UUDD (MOSCOW/DOMODEDOV, RU) observed 2330 UTC 18 February 2019
Temperature: -12.0°C (10°F)
Dewpoint: -15.0°C ( 5°F) [RH = 78%]
Pressure (altimeter): 30.15 inches Hg (1021.0 mb)
Winds: variable direction winds at 2 MPH (2 knots; 1.0 m/s)
Visibility: 6 or more miles (10+ km)
Ceiling: ceiling and visibility are OK
Clouds: unknown
Weather: no significant weather observed at this time

METAR text: UUDD 182300Z 00000MPS CAVOK M12/M16 Q1021 R32L/190095 NOSIG
Conditions at: UUDD (MOSCOW/DOMODEDOV, RU) observed 2300 UTC 18 February 2019
Temperature: -12.0°C (10°F)
Dewpoint: -16.0°C ( 3°F) [RH = 72%]
Pressure (altimeter): 30.15 inches Hg (1021.0 mb)
Winds: calm
Visibility: 6 or more miles (10+ km)
Ceiling: ceiling and visibility are OK
Clouds: unknown
Weather: no significant weather observed at this time

METAR text: UUDD 182230Z VRB01MPS CAVOK M08/M14 Q1021 R32L/190095 NOSIG
Conditions at: UUDD (MOSCOW/DOMODEDOV, RU) observed 2230 UTC 18 February 2019
Temperature: -8.0°C (18°F)
Dewpoint: -14.0°C ( 7°F) [RH = 62%]
Pressure (altimeter): 30.15 inches Hg (1021.0 mb)
Winds: variable direction winds at 2 MPH (2 knots; 1.0 m/s)
Visibility: 6 or more miles (10+ km)
Ceiling: ceiling and visibility are OK
Clouds: unknown
Weather: no significant weather observed at this time

METAR text: UUDD 182200Z VRB01MPS CAVOK M08/M15 Q1021 R32L/190095 NOSIG
Conditions at: UUDD (MOSCOW/DOMODEDOV, RU) observed 2200 UTC 18 February 2019
Temperature: -8.0°C (18°F)
Dewpoint: -15.0°C ( 5°F) [RH = 57%]
Pressure (altimeter): 30.15 inches Hg (1021.0 mb)
Winds: variable direction winds at 2 MPH (2 knots; 1.0 m/s)
Visibility: 6 or more miles (10+ km)
Ceiling: ceiling and visibility are OK
Clouds: unknown
Weather: no significant weather observed at this time

METAR text: UUDD 182130Z 35003MPS CAVOK M06/M14 Q1021 R32L/190095 NOSIG
Conditions at: UUDD (MOSCOW/DOMODEDOV, RU) observed 2130 UTC 18 February 2019
Temperature: -6.0°C (21°F)
Dewpoint: -14.0°C ( 7°F) [RH = 53%]
Pressure (altimeter): 30.15 inches Hg (1021.0 mb)
Winds: from the N (350 degrees) at 7 MPH (6 knots; 3.1 m/s)
Visibility: 6 or more miles (10+ km)
Ceiling: ceiling and visibility are OK
Clouds: unknown
Weather: no significant weather observed at this time

METAR text: UUDD 182100Z 35003MPS 320V030 CAVOK M05/M13 Q1020 R32L/190095 NOSIG
Conditions at: UUDD (MOSCOW/DOMODEDOV, RU) observed 2100 UTC 18 February 2019
Temperature: -5.0°C (23°F)
Dewpoint: -13.0°C ( 9°F) [RH = 53%]
Pressure (altimeter): 30.12 inches Hg (1020.0 mb)
Winds: from the N (350 degrees) at 7 MPH (6 knots; 3.1 m/s)
Visibility: 6 or more miles (10+ km)
Ceiling: ceiling and visibility are OK
Clouds: unknown
Weather: no significant weather observed at this time

METAR text: UUDD 182030Z 34003MPS CAVOK M06/M13 Q1020 R32L/190095 NOSIG
Conditions at: UUDD (MOSCOW/DOMODEDOV, RU) observed 2030 UTC 18 February 2019
Temperature: -6.0°C (21°F)
Dewpoint: -13.0°C ( 9°F) [RH = 58%]
Pressure (altimeter): 30.12 inches Hg (1020.0 mb)
Winds: from the NNW (340 degrees) at 7 MPH (6 knots; 3.1 m/s)
Visibility: 6 or more miles (10+ km)
Ceiling: ceiling and visibility are OK
Clouds: unknown
Weather: no significant weather observed at this time

METAR text: UUDD 182000Z 35004MPS CAVOK M05/M13 Q1020 R88/190095 NOSIG
Conditions at: UUDD (MOSCOW/DOMODEDOV, RU) observed 2000 UTC 18 February 2019
Temperature: -5.0°C (23°F)
Dewpoint: -13.0°C ( 9°F) [RH = 53%]
Pressure (altimeter): 30.12 inches Hg (1020.0 mb)
Winds: from the N (350 degrees) at 9 MPH (8 knots; 4.1 m/s)
Visibility: 6 or more miles (10+ km)
Ceiling: ceiling and visibility are OK
Clouds: unknown
Weather: no significant weather observed at this time

METAR text: UUDD 181930Z 34004MPS CAVOK M05/M13 Q1020 R88/190095 NOSIG
Conditions at: UUDD (MOSCOW/DOMODEDOV, RU) observed 1930 UTC 18 February 2019
Temperature: -5.0°C (23°F)
Dewpoint: -13.0°C ( 9°F) [RH = 53%]
Pressure (altimeter): 30.12 inches Hg (1020.0 mb)
Winds: from the NNW (340 degrees) at 9 MPH (8 knots; 4.1 m/s)
Visibility: 6 or more miles (10+ km)
Ceiling: ceiling and visibility are OK
Clouds: unknown
Weather: no significant weather observed at this time

METAR text: UUDD 181900Z 35004MPS CAVOK M04/M13 Q1020 R88/190095 NOSIG
Conditions at: UUDD (MOSCOW/DOMODEDOV, RU) observed 1900 UTC 18 February 2019
Temperature: -4.0°C (25°F)
Dewpoint: -13.0°C ( 9°F) [RH = 50%]
Pressure (altimeter): 30.12 inches Hg (1020.0 mb)
Winds: from the N (350 degrees) at 9 MPH (8 knots; 4.1 m/s)
Visibility: 6 or more miles (10+ km)
Ceiling: ceiling and visibility are OK
Clouds: unknown
Weather: no significant weather observed at this time

METAR text: UUDD 181830Z 35004MPS CAVOK M04/M12 Q1020 R88/190095 NOSIG
Conditions at: UUDD (MOSCOW/DOMODEDOV, RU) observed 1830 UTC 18 February 2019
Temperature: -4.0°C (25°F)
Dewpoint: -12.0°C (10°F) [RH = 54%]
Pressure (altimeter): 30.12 inches Hg (1020.0 mb)
Winds: from the N (350 degrees) at 9 MPH (8 knots; 4.1 m/s)
Visibility: 6 or more miles (10+ km)
Ceiling: ceiling and visibility are OK
Clouds: unknown
Weather: no significant weather observed at this time

METAR text: UUDD 181800Z 35004MPS CAVOK M04/M12 Q1020 R88/190095 NOSIG
Conditions at: UUDD (MOSCOW/DOMODEDOV, RU) observed 1800 UTC 18 February 2019
Temperature: -4.0°C (25°F)
Dewpoint: -12.0°C (10°F) [RH = 54%]
Pressure (altimeter): 30.12 inches Hg (1020.0 mb)
Winds: from the N (350 degrees) at 9 MPH (8 knots; 4.1 m/s)
Visibility: 6 or more miles (10+ km)
Ceiling: ceiling and visibility are OK
Clouds: unknown
Weather: no significant weather observed at this time

METAR text: UUDD 181730Z 34005MPS CAVOK M04/M12 Q1019 R88/190095 NOSIG
Conditions at: UUDD (MOSCOW/DOMODEDOV, RU) observed 1730 UTC 18 February 2019
Temperature: -4.0°C (25°F)
Dewpoint: -12.0°C (10°F) [RH = 54%]
Pressure (altimeter): 30.09 inches Hg (1019.0 mb)
Winds: from the NNW (340 degrees) at 12 MPH (10 knots; 5.1 m/s)
Visibility: 6 or more miles (10+ km)
Ceiling: ceiling and visibility are OK
Clouds: unknown
Weather: no significant weather observed at this time

METAR text: UUDD 181700Z 33006MPS CAVOK M04/M12 Q1019 R88/190095 NOSIG
Conditions at: UUDD (MOSCOW/DOMODEDOV, RU) observed 1700 UTC 18 February 2019
Temperature: -4.0°C (25°F)
Dewpoint: -12.0°C (10°F) [RH = 54%]
Pressure (altimeter): 30.09 inches Hg (1019.0 mb)
Winds: from the NNW (330 degrees) at 14 MPH (12 knots; 6.2 m/s)
Visibility: 6 or more miles (10+ km)
Ceiling: ceiling and visibility are OK
Clouds: unknown
Weather: no significant weather observed at this time

METAR text: UUDD 181630Z 33005MPS CAVOK M04/M11 Q1019 R88/190095 NOSIG
Conditions at: UUDD (MOSCOW/DOMODEDOV, RU) observed 1630 UTC 18 February 2019
Temperature: -4.0°C (25°F)
Dewpoint: -11.0°C (12°F) [RH = 58%]
Pressure (altimeter): 30.09 inches Hg (1019.0 mb)
Winds: from the NNW (330 degrees) at 12 MPH (10 knots; 5.1 m/s)
Visibility: 6 or more miles (10+ km)
Ceiling: ceiling and visibility are OK
Clouds: unknown
Weather: no significant weather observed at this time

METAR text: UUDD 181600Z 33006MPS CAVOK M04/M11 Q1018 R88/190095 NOSIG
Conditions at: UUDD (MOSCOW/DOMODEDOV, RU) observed 1600 UTC 18 February 2019
Temperature: -4.0°C (25°F)
Dewpoint: -11.0°C (12°F) [RH = 58%]
Pressure (altimeter): 30.06 inches Hg (1018.0 mb)
Winds: from the NNW (330 degrees) at 14 MPH (12 knots; 6.2 m/s)
Visibility: 6 or more miles (10+ km)
Ceiling: ceiling and visibility are OK
Clouds: unknown
Weather: no significant weather observed at this time

METAR text: UUDD 181530Z 33007MPS CAVOK M03/M11 Q1018 R88/190095 NOSIG
Conditions at: UUDD (MOSCOW/DOMODEDOV, RU) observed 1530 UTC 18 February 2019
Temperature: -3.0°C (27°F)
Dewpoint: -11.0°C (12°F) [RH = 54%]
Pressure (altimeter): 30.06 inches Hg (1018.0 mb)
Winds: from the NNW (330 degrees) at 16 MPH (14 knots; 7.2 m/s)
Visibility: 6 or more miles (10+ km)
Ceiling: ceiling and visibility are OK
Clouds: unknown
Weather: no significant weather observed at this time

METAR text: UUDD 181500Z 33007MPS CAVOK M03/M11 Q1018 R88/190095 NOSIG
Conditions at: UUDD (MOSCOW/DOMODEDOV, RU) observed 1500 UTC 18 February 2019
Temperature: -3.0°C (27°F)
Dewpoint: -11.0°C (12°F) [RH = 54%]
Pressure (altimeter): 30.06 inches Hg (1018.0 mb)
Winds: from the NNW (330 degrees) at 16 MPH (14 knots; 7.2 m/s)
Visibility: 6 or more miles (10+ km)
Ceiling: ceiling and visibility are OK
Clouds: unknown
Weather: no significant weather observed at this time

METAR text: UUDD 181430Z 33008MPS CAVOK M03/M11 Q1017 R88/190095 NOSIG
Conditions at: UUDD (MOSCOW/DOMODEDOV, RU) observed 1430 UTC 18 February 2019
Temperature: -3.0°C (27°F)
Dewpoint: -11.0°C (12°F) [RH = 54%]
Pressure (altimeter): 30.03 inches Hg (1017.0 mb)
Winds: from the NNW (330 degrees) at 18 MPH (16 knots; 8.2 m/s)
Visibility: 6 or more miles (10+ km)
Ceiling: ceiling and visibility are OK
Clouds: unknown
Weather: no significant weather observed at this time

METAR text: UUDD 181400Z 33008MPS CAVOK M02/M12 Q1017 R88/190095 NOSIG
Conditions at: UUDD (MOSCOW/DOMODEDOV, RU) observed 1400 UTC 18 February 2019
Temperature: -2.0°C (28°F)
Dewpoint: -12.0°C (10°F) [RH = 46%]
Pressure (altimeter): 30.03 inches Hg (1017.0 mb)
Winds: from the NNW (330 degrees) at 18 MPH (16 knots; 8.2 m/s)
Visibility: 6 or more miles (10+ km)
Ceiling: ceiling and visibility are OK
Clouds: unknown
Weather: no significant weather observed at this time

METAR text: UUDD 181330Z 34009MPS CAVOK M01/M11 Q1016 R88/190095 NOSIG
Conditions at: UUDD (MOSCOW/DOMODEDOV, RU) observed 1330 UTC 18 February 2019
Temperature: -1.0°C (30°F)
Dewpoint: -11.0°C (12°F) [RH = 47%]
Pressure (altimeter): 30.00 inches Hg (1016.0 mb)
Winds: from the NNW (340 degrees) at 20 MPH (17 knots; 8.7 m/s)
Visibility: 6 or more miles (10+ km)
Ceiling: ceiling and visibility are OK
Clouds: unknown
Weather: no significant weather observed at this time

METAR text: UUDD 181300Z 34009MPS CAVOK M01/M11 Q1016 R88/190095 NOSIG
Conditions at: UUDD (MOSCOW/DOMODEDOV, RU) observed 1300 UTC 18 February 2019
Temperature: -1.0°C (30°F)
Dewpoint: -11.0°C (12°F) [RH = 47%]
Pressure (altimeter): 30.00 inches Hg (1016.0 mb)
Winds: from the NNW (340 degrees) at 20 MPH (17 knots; 8.7 m/s)
Visibility: 6 or more miles (10+ km)
Ceiling: ceiling and visibility are OK
Clouds: unknown
Weather: no significant weather observed at this time

METAR text: UUDD 181230Z 33008G13MPS CAVOK M01/M11 Q1016 WS R32L R88/190095 NOSIG
Conditions at: UUDD (MOSCOW/DOMODEDOV, RU) observed 1230 UTC 18 February 2019
Temperature: -1.0°C (30°F)
Dewpoint: -11.0°C (12°F) [RH = 47%]
Pressure (altimeter): 30.00 inches Hg (1016.0 mb)
Winds: from the NNW (330 degrees) at 18 MPH (16 knots; 8.2 m/s)
gusting to 29 MPH (25 knots; 12.9 m/s)
Visibility: 6 or more miles (10+ km)
Ceiling: ceiling and visibility are OK
Clouds: unknown
Weather: no significant weather observed at this time

METAR text: UUDD 181200Z 34009MPS 9999 FEW046 M01/M11 Q1016 R88/420195 NOSIG
Conditions at: UUDD (MOSCOW/DOMODEDOV, RU) observed 1200 UTC 18 February 2019
Temperature: -1.0°C (30°F)
Dewpoint: -11.0°C (12°F) [RH = 47%]
Pressure (altimeter): 30.00 inches Hg (1016.0 mb)
Winds: from the NNW (340 degrees) at 20 MPH (17 knots; 8.7 m/s)
Visibility: 6 or more miles (10+ km)
Ceiling: at least 12,000 feet AGL
Clouds: few clouds at 4600 feet AGL
Weather: no significant weather observed at this time

METAR text: UUDD 181130Z 34009MPS 9999 FEW047 M01/M12 Q1016 R88/420195 NOSIG
Conditions at: UUDD (MOSCOW/DOMODEDOV, RU) observed 1130 UTC 18 February 2019
Temperature: -1.0°C (30°F)
Dewpoint: -12.0°C (10°F) [RH = 43%]
Pressure (altimeter): 30.00 inches Hg (1016.0 mb)
Winds: from the NNW (340 degrees) at 20 MPH (17 knots; 8.7 m/s)
Visibility: 6 or more miles (10+ km)
Ceiling: at least 12,000 feet AGL
Clouds: few clouds at 4700 feet AGL
Weather: no significant weather observed at this time

METAR text: UUDD 181100Z 34010MPS CAVOK M01/M12 Q1016 R88/420195 NOSIG
Conditions at: UUDD (MOSCOW/DOMODEDOV, RU) observed 1100 UTC 18 February 2019
Temperature: -1.0°C (30°F)
Dewpoint: -12.0°C (10°F) [RH = 43%]
Pressure (altimeter): 30.00 inches Hg (1016.0 mb)
Winds: from the NNW (340 degrees) at 22 MPH (19 knots; 9.8 m/s)
Visibility: 6 or more miles (10+ km)
Ceiling: ceiling and visibility are OK
Clouds: unknown
Weather: no significant weather observed at this time

METAR text: UUDD 181030Z 34009MPS CAVOK M01/M11 Q1015 R88/420195 NOSIG
Conditions at: UUDD (MOSCOW/DOMODEDOV, RU) observed 1030 UTC 18 February 2019
Temperature: -1.0°C (30°F)
Dewpoint: -11.0°C (12°F) [RH = 47%]
Pressure (altimeter): 29.97 inches Hg (1015.0 mb)
Winds: from the NNW (340 degrees) at 20 MPH (17 knots; 8.7 m/s)
Visibility: 6 or more miles (10+ km)
Ceiling: ceiling and visibility are OK
Clouds: unknown
Weather: no significant weather observed at this time

METAR text: UUDD 181000Z 33009MPS CAVOK M02/M10 Q1015 R88/420195 NOSIG
Conditions at: UUDD (MOSCOW/DOMODEDOV, RU) observed 1000 UTC 18 February 2019
Temperature: -2.0°C (28°F)
Dewpoint: -10.0°C (14°F) [RH = 54%]
Pressure (altimeter): 29.97 inches Hg (1015.0 mb)
Winds: from the NNW (330 degrees) at 20 MPH (17 knots; 8.7 m/s)
Visibility: 6 or more miles (10+ km)
Ceiling: ceiling and visibility are OK
Clouds: unknown
Weather: no significant weather observed at this time

METAR text: UUDD 180930Z 35007G12MPS CAVOK M02/M11 Q1015 R88/420195 NOSIG
Conditions at: UUDD (MOSCOW/DOMODEDOV, RU) observed 0930 UTC 18 February 2019
Temperature: -2.0°C (28°F)
Dewpoint: -11.0°C (12°F) [RH = 50%]
Pressure (altimeter): 29.97 inches Hg (1015.0 mb)
Winds: from the N (350 degrees) at 16 MPH (14 knots; 7.2 m/s)
gusting to 26 MPH (23 knots; 11.8 m/s)
Visibility: 6 or more miles (10+ km)
Ceiling: ceiling and visibility are OK
Clouds: unknown
Weather: no significant weather observed at this time

METAR text: UUDD 180900Z 33010G15MPS 9999 FEW039 M02/M11 Q1015 R88/420195 NOSIG
Conditions at: UUDD (MOSCOW/DOMODEDOV, RU) observed 0900 UTC 18 February 2019
Temperature: -2.0°C (28°F)
Dewpoint: -11.0°C (12°F) [RH = 50%]
Pressure (altimeter): 29.97 inches Hg (1015.0 mb)
Winds: from the NNW (330 degrees) at 22 MPH (19 knots; 9.8 m/s)
gusting to 33 MPH (29 knots; 14.9 m/s)
Visibility: 6 or more miles (10+ km)
Ceiling: at least 12,000 feet AGL
Clouds: few clouds at 3900 feet AGL
Weather: no significant weather observed at this time

METAR text: UUDD 180830Z 34010G15MPS CAVOK M02/M11 Q1014 R88/420195 NOSIG
Conditions at: UUDD (MOSCOW/DOMODEDOV, RU) observed 0830 UTC 18 February 2019
Temperature: -2.0°C (28°F)
Dewpoint: -11.0°C (12°F) [RH = 50%]
Pressure (altimeter): 29.94 inches Hg (1014.0 mb)
Winds: from the NNW (340 degrees) at 22 MPH (19 knots; 9.8 m/s)
gusting to 33 MPH (29 knots; 14.9 m/s)
Visibility: 6 or more miles (10+ km)
Ceiling: ceiling and visibility are OK
Clouds: unknown
Weather: no significant weather observed at this time

METAR text: UUDD 180800Z 34010MPS 9999 FEW040 M02/M11 Q1014 R88/420195 NOSIG
Conditions at: UUDD (MOSCOW/DOMODEDOV, RU) observed 0800 UTC 18 February 2019
Temperature: -2.0°C (28°F)
Dewpoint: -11.0°C (12°F) [RH = 50%]
Pressure (altimeter): 29.94 inches Hg (1014.0 mb)
Winds: from the NNW (340 degrees) at 22 MPH (19 knots; 9.8 m/s)
Visibility: 6 or more miles (10+ km)
Ceiling: at least 12,000 feet AGL
Clouds: few clouds at 4000 feet AGL
Weather: no significant weather observed at this time

METAR text: UUDD 180730Z 34010MPS 9999 FEW040 M02/M10 Q1013 R88/420195 NOSIG
Conditions at: UUDD (MOSCOW/DOMODEDOV, RU) observed 0730 UTC 18 February 2019
Temperature: -2.0°C (28°F)
Dewpoint: -10.0°C (14°F) [RH = 54%]
Pressure (altimeter): 29.91 inches Hg (1013.0 mb)
Winds: from the NNW (340 degrees) at 22 MPH (19 knots; 9.8 m/s)
Visibility: 6 or more miles (10+ km)
Ceiling: at least 12,000 feet AGL
Clouds: few clouds at 4000 feet AGL
Weather: no significant weather observed at this time

METAR text: UUDD 180700Z 34009MPS 9999 SCT037 M03/M10 Q1012 R88/420195 NOSIG
Conditions at: UUDD (MOSCOW/DOMODEDOV, RU) observed 0700 UTC 18 February 2019
Temperature: -3.0°C (27°F)
Dewpoint: -10.0°C (14°F) [RH = 58%]
Pressure (altimeter): 29.88 inches Hg (1012.0 mb)
Winds: from the NNW (340 degrees) at 20 MPH (17 knots; 8.7 m/s)
Visibility: 6 or more miles (10+ km)
Ceiling: at least 12,000 feet AGL
Clouds: scattered clouds at 3700 feet AGL
Weather: no significant weather observed at this time

METAR text: UUDD 180630Z 34010G15MPS 9999 SCT037 M03/M10 Q1012 R88/420195 NOSIG
Conditions at: UUDD (MOSCOW/DOMODEDOV, RU) observed 0630 UTC 18 February 2019
Temperature: -3.0°C (27°F)
Dewpoint: -10.0°C (14°F) [RH = 58%]
Pressure (altimeter): 29.88 inches Hg (1012.0 mb)
Winds: from the NNW (340 degrees) at 22 MPH (19 knots; 9.8 m/s)
gusting to 33 MPH (29 knots; 14.9 m/s)
Visibility: 6 or more miles (10+ km)
Ceiling: at least 12,000 feet AGL
Clouds: scattered clouds at 3700 feet AGL
Weather: no significant weather observed at this time

METAR text: UUDD 180600Z 34010G15MPS 9999 SCT037 M03/M10 Q1012 WS R32L R32L/420195 R32R/490195 NOSIG
Conditions at: UUDD (MOSCOW/DOMODEDOV, RU) observed 0600 UTC 18 February 2019
Temperature: -3.0°C (27°F)
Dewpoint: -10.0°C (14°F) [RH = 58%]
Pressure (altimeter): 29.88 inches Hg (1012.0 mb)
Winds: from the NNW (340 degrees) at 22 MPH (19 knots; 9.8 m/s)
gusting to 33 MPH (29 knots; 14.9 m/s)
Visibility: 6 or more miles (10+ km)
Ceiling: at least 12,000 feet AGL
Clouds: scattered clouds at 3700 feet AGL
Weather: no significant weather observed at this time

METAR text: UUDD 180530Z 34011MPS 9999 BKN038 M02/M10 Q1011 R88/490195 NOSIG
Conditions at: UUDD (MOSCOW/DOMODEDOV, RU) observed 0530 UTC 18 February 2019
Temperature: -2.0°C (28°F)
Dewpoint: -10.0°C (14°F) [RH = 54%]
Pressure (altimeter): 29.85 inches Hg (1011.0 mb)
Winds: from the NNW (340 degrees) at 24 MPH (21 knots; 10.8 m/s)
Visibility: 6 or more miles (10+ km)
Ceiling: 3800 feet AGL
Clouds: broken clouds at 3800 feet AGL
Weather: no significant weather observed at this time

METAR text: UUDD 180500Z 34011MPS 9999 BKN035 M02/M10 Q1010 R88/490195 NOSIG
Conditions at: UUDD (MOSCOW/DOMODEDOV, RU) observed 0500 UTC 18 February 2019
Temperature: -2.0°C (28°F)
Dewpoint: -10.0°C (14°F) [RH = 54%]
Pressure (altimeter): 29.82 inches Hg (1010.0 mb)
Winds: from the NNW (340 degrees) at 24 MPH (21 knots; 10.8 m/s)
Visibility: 6 or more miles (10+ km)
Ceiling: 3500 feet AGL
Clouds: broken clouds at 3500 feet AGL
Weather: no significant weather observed at this time

METAR text: UUDD 180430Z 34011G16MPS 9999 BKN032 M02/M10 Q1009 R88/490195 NOSIG
Conditions at: UUDD (MOSCOW/DOMODEDOV, RU) observed 0430 UTC 18 February 2019
Temperature: -2.0°C (28°F)
Dewpoint: -10.0°C (14°F) [RH = 54%]
Pressure (altimeter): 29.79 inches Hg (1009.0 mb)
Winds: from the NNW (340 degrees) at 24 MPH (21 knots; 10.8 m/s)
gusting to 36 MPH (31 knots; 15.9 m/s)
Visibility: 6 or more miles (10+ km)
Ceiling: 3200 feet AGL
Clouds: broken clouds at 3200 feet AGL
Weather: no significant weather observed at this time

METAR text: UUDD 180400Z 34009MPS 9999 BKN041 M02/M10 Q1009 R32L/490195 NOSIG
Conditions at: UUDD (MOSCOW/DOMODEDOV, RU) observed 0400 UTC 18 February 2019
Temperature: -2.0°C (28°F)
Dewpoint: -10.0°C (14°F) [RH = 54%]
Pressure (altimeter): 29.79 inches Hg (1009.0 mb)
Winds: from the NNW (340 degrees) at 20 MPH (17 knots; 8.7 m/s)
Visibility: 6 or more miles (10+ km)
Ceiling: 4100 feet AGL
Clouds: broken clouds at 4100 feet AGL
Weather: no significant weather observed at this time

METAR text: UUDD 180330Z 34010G16MPS 9999 BKN042 M02/M10 Q1008 R32L/490195 NOSIG
Conditions at: UUDD (MOSCOW/DOMODEDOV, RU) observed 0330 UTC 18 February 2019
Temperature: -2.0°C (28°F)
Dewpoint: -10.0°C (14°F) [RH = 54%]
Pressure (altimeter): 29.76 inches Hg (1008.0 mb)
Winds: from the NNW (340 degrees) at 22 MPH (19 knots; 9.8 m/s)
gusting to 36 MPH (31 knots; 15.9 m/s)
Visibility: 6 or more miles (10+ km)
Ceiling: 4200 feet AGL
Clouds: broken clouds at 4200 feet AGL
Weather: no significant weather observed at this time

METAR text: UUDD 180300Z 34012G18MPS 9999 BKN045 M02/M10 Q1008 R32L/490195 NOSIG
Conditions at: UUDD (MOSCOW/DOMODEDOV, RU) observed 0300 UTC 18 February 2019
Temperature: -2.0°C (28°F)
Dewpoint: -10.0°C (14°F) [RH = 54%]
Pressure (altimeter): 29.76 inches Hg (1008.0 mb)
Winds: from the NNW (340 degrees) at 26 MPH (23 knots; 11.8 m/s)
gusting to 40 MPH (35 knots; 18.0 m/s)
Visibility: 6 or more miles (10+ km)
Ceiling: 4500 feet AGL
Clouds: broken clouds at 4500 feet AGL
Weather: no significant weather observed at this time

METAR text: UUDD 180230Z 34013G19MPS 9999 -SHSN BKN040CB M01/M10 Q1007 R32L/490195 NOSIG
Conditions at: UUDD (MOSCOW/DOMODEDOV, RU) observed 0230 UTC 18 February 2019
Temperature: -1.0°C (30°F)
Dewpoint: -10.0°C (14°F) [RH = 50%]
Pressure (altimeter): 29.73 inches Hg (1007.0 mb)
Winds: from the NNW (340 degrees) at 29 MPH (25 knots; 12.9 m/s)
gusting to 43 MPH (37 knots; 19.0 m/s)
Visibility: 6 or more miles (10+ km)
Ceiling: 4000 feet AGL
Clouds: broken clouds at 4000 feet AGL
Weather: -SHSN  (light snow showers)

METAR text: UUDD 180200Z 33013G18MPS 9999 -SHSN BKN041CB M01/M09 Q1007 R32L/490195 NOSIG
Conditions at: UUDD (MOSCOW/DOMODEDOV, RU) observed 0200 UTC 18 February 2019
Temperature: -1.0°C (30°F)
Dewpoint: -9.0°C (16°F) [RH = 55%]
Pressure (altimeter): 29.73 inches Hg (1007.0 mb)
Winds: from the NNW (330 degrees) at 29 MPH (25 knots; 12.9 m/s)
gusting to 40 MPH (35 knots; 18.0 m/s)
Visibility: 6 or more miles (10+ km)
Ceiling: 4100 feet AGL
Clouds: broken clouds at 4100 feet AGL
Weather: -SHSN  (light snow showers)

METAR text: UUDD 180130Z 33010MPS 9999 -SHSN BKN039CB M02/M07 Q1006 R32L/490195 TEMPO 1000 SHSN
Conditions at: UUDD (MOSCOW/DOMODEDOV, RU) observed 0130 UTC 18 February 2019
Temperature: -2.0°C (28°F)
Dewpoint: -7.0°C (19°F) [RH = 69%]
Pressure (altimeter): 29.70 inches Hg (1006.0 mb)
Winds: from the NNW (330 degrees) at 22 MPH (19 knots; 9.8 m/s)
Visibility: 6 or more miles (10+ km)
Ceiling: 3900 feet AGL
Clouds: broken clouds at 3900 feet AGL
Weather: -SHSN  (light snow showers)

METAR text: UUDD 180100Z 33012MPS 9999 -SHSN BKN034CB M01/M08 Q1006 R32L/490195 NOSIG
Conditions at: UUDD (MOSCOW/DOMODEDOV, RU) observed 0100 UTC 18 February 2019
Temperature: -1.0°C (30°F)
Dewpoint: -8.0°C (18°F) [RH = 59%]
Pressure (altimeter): 29.70 inches Hg (1006.0 mb)
Winds: from the NNW (330 degrees) at 26 MPH (23 knots; 11.8 m/s)
Visibility: 6 or more miles (10+ km)
Ceiling: 3400 feet AGL
Clouds: broken clouds at 3400 feet AGL
Weather: -SHSN  (light snow showers)

METAR text: UUDD 180030Z 33010G15MPS 9999 -SHSN BKN017CB M01/M07 Q1005 R32L/490195 NOSIG
Conditions at: UUDD (MOSCOW/DOMODEDOV, RU) observed 0030 UTC 18 February 2019
Temperature: -1.0°C (30°F)
Dewpoint: -7.0°C (19°F) [RH = 64%]
Pressure (altimeter): 29.68 inches Hg (1005.0 mb)
Winds: from the NNW (330 degrees) at 22 MPH (19 knots; 9.8 m/s)
gusting to 33 MPH (29 knots; 14.9 m/s)
Visibility: 6 or more miles (10+ km)
Ceiling: 1700 feet AGL
Clouds: broken clouds at 1700 feet AGL
Weather: -SHSN  (light snow showers)

METAR text: UUDD 180000Z 33012G17MPS 9999 -SHSN BKN025CB M01/M07 Q1005 R32L/490195 NOSIG
Conditions at: UUDD (MOSCOW/DOMODEDOV, RU) observed 0000 UTC 18 February 2019
Temperature: -1.0°C (30°F)
Dewpoint: -7.0°C (19°F) [RH = 64%]
Pressure (altimeter): 29.68 inches Hg (1005.0 mb)
Winds: from the NNW (330 degrees) at 26 MPH (23 knots; 11.8 m/s)
gusting to 38 MPH (33 knots; 17.0 m/s)
Visibility: 6 or more miles (10+ km)
Ceiling: 2500 feet AGL
Clouds: broken clouds at 2500 feet AGL
Weather: -SHSN  (light snow showers)

METAR text: UUDD 172330Z 32012MPS 9999 -SHSN BKN035CB M01/M07 Q1004 R32L/490195 TEMPO 1000 SHSN BKN012CB
Conditions at: UUDD (MOSCOW/DOMODEDOV, RU) observed 2330 UTC 17 February 2019
Temperature: -1.0°C (30°F)
Dewpoint: -7.0°C (19°F) [RH = 64%]
Pressure (altimeter): 29.65 inches Hg (1004.0 mb)
Winds: from the NW (320 degrees) at 26 MPH (23 knots; 11.8 m/s)
Visibility: 6 or more miles (10+ km)
Ceiling: 3500 feet AGL
Clouds: broken clouds at 3500 feet AGL
Weather: -SHSN  (light snow showers)

Forecast for: UUDD (MOSCOW/DOMODEDOV, RU)
Text: TAF UUDD 191057Z 1912/2018 23006G13MPS 9999 SCT015 TX02/2011Z TNM02/2000Z
Forecast period: 1200 UTC 19 February 2019 to 1800 UTC 20 February 2019
Forecast type: FROM: standard forecast or significant change
Winds: from the SW (230 degrees) at 14 MPH (12 knots; 6.2 m/s)
gusting to 29 MPH (25 knots; 12.9 m/s)
Visibility: 6 or more miles 10+ km)
Ceiling: at least 12,000 feet AGL
Clouds: scattered clouds at 1500 feet AGL
Weather: no significant weather forecast for this period
Text: TEMPO 1912/1924 23011G17MPS
Forecast period: 1200 UTC 19 February 2019 to 0000 UTC 20 February 2019
Forecast type: TEMPORARY: The following changes expected for less than half the time period
Winds: from the SW (230 degrees) at 24 MPH (21 knots; 10.8 m/s)
gusting to 38 MPH (33 knots; 17.0 m/s)
Visibility: missing
Ceiling: unknown
Clouds: missing
Weather: no significant weather forecast for this period
Text: TEMPO 2000/2012 3100 -SN FEW005 OVC011
Forecast period: 0000 to 1200 UTC 20 February 2019
Forecast type: TEMPORARY: The following changes expected for less than half the time period
Visibility: 1.93 miles (3.11 km)
Ceiling: 1100 feet AGL
Clouds: few clouds at 500 feet AGL
overcast cloud deck at 1100 feet AGL
Weather: -SN  (light snow)
Text: PROB40
Forecast period: 0000 to 0900 UTC 20 February 2019
Forecast type: TEMPORARY: The following changes expected for less than half the time period
Visibility: missing
Ceiling: 500 feet AGL
Clouds: overcast cloud deck at 500 feet AGL
Weather: -FZDZ  (light freezing drizzle)